logo
Rechercher aéroport 
image banner adimage banner adimage banner ad
image banner ad

UGSB - Batumi

Situé à Batumi, Georgia

ICAO - UGSB, IATA - BUS

Données fournies par Airmate  

Information générale

Coordonnées: N41°36'37" E41°35'58"
Élévation : 37 feet MSL.
Variation magnétique : 7° East
Voir autres Aéroports à Adjara

Données opérationnelles

Special qualification required
Heure actuelle UTC:
Heure actuelle locale:
Météo
TAF: TAF UGSB 222300Z 2300/2324 13010KT CAVOK TX21/2312Z TN13/2301Z BECMG 2305/2307 25007KT BECMG 2318/2321 13010KT
Voir NOTAMs / SUP AIP / TFR affectant cet aéroport [VIEW]
Fréquences de communication: [VIEW]

Pistes:

Identifiant RWYQFULongueur (ft)Largeur (ft)SurfaceLDA (ft)
12131°8202148CONC+ASPH8202
30311°8202148CONC+ASPH8202

Coordonnées de l'aéroport

Adresse: Batumi Georgia

Vue satellite de UGSB